createdAt,value
2018-06-28T00:00:08.146Z,18.58
2018-06-28T00:02:56.634Z,18.57
2018-06-28T00:08:35.995Z,18.48
2018-06-28T00:11:29.172Z,18.48
2018-06-28T00:14:19.458Z,18.46
2018-06-28T00:17:03.108Z,18.49
2018-06-28T00:19:58.837Z,18.43
2018-06-28T00:22:48.776Z,18.39
2018-06-28T00:25:44.767Z,18.34
2018-06-28T00:28:39.207Z,18.32
2018-06-28T00:31:29.538Z,18.29
2018-06-28T00:34:17.222Z,18.30
2018-06-28T00:37:11.124Z,18.29
2018-06-28T00:40:07.873Z,18.27
2018-06-28T00:42:51.256Z,18.20
2018-06-28T00:45:41.129Z,18.24
2018-06-28T00:48:31.757Z,18.17
2018-06-28T00:51:13.451Z,18.15
2018-06-28T00:54:03.258Z,18.14
2018-06-28T00:56:47.053Z,18.10
2018-06-28T00:59:31.237Z,18.06
2018-06-28T01:02:22.049Z,18.03
2018-06-28T01:05:12.393Z,18.00
2018-06-28T01:08:01.194Z,18.00
2018-06-28T01:10:52.329Z,17.94
2018-06-28T01:13:41.110Z,17.95
2018-06-28T01:16:30.619Z,17.89
2018-06-28T01:19:20.095Z,17.79
2018-06-28T01:22:21.128Z,17.77
2018-06-28T01:25:11.224Z,17.74
2018-06-28T01:27:58.132Z,17.68
2018-06-28T01:33:34.862Z,17.67
2018-06-28T01:36:04.846Z,17.61
2018-06-28T01:38:47.176Z,17.55
2018-06-28T01:41:38.530Z,17.53
2018-06-28T01:44:27.964Z,17.52
2018-06-28T01:47:18.528Z,17.50
2018-06-28T01:55:51.587Z,17.47
2018-06-28T01:58:40.133Z,17.42
2018-06-28T02:04:21.847Z,17.32
2018-06-28T02:07:15.655Z,17.32
2018-06-28T02:09:59.683Z,17.29
2018-06-28T02:12:50.346Z,17.26
2018-06-28T02:18:27.065Z,17.21
2018-06-28T02:21:19.707Z,17.17
2018-06-28T02:24:11.106Z,17.14
2018-06-28T02:27:04.617Z,17.07
2018-06-28T02:29:53.961Z,17.08
2018-06-28T02:35:33.813Z,17.00
2018-06-28T02:38:24.370Z,17.00
2018-06-28T02:41:13.264Z,16.99
2018-06-28T02:46:59.120Z,16.97
2018-06-28T02:49:55.627Z,16.97
2018-06-28T02:58:33.203Z,16.89
2018-06-28T03:01:24.375Z,16.91
2018-06-28T03:04:14.408Z,16.86
2018-06-28T03:07:04.854Z,16.81
2018-06-28T03:09:53.273Z,16.77
2018-06-28T03:12:38.083Z,16.78
2018-06-28T03:15:23.236Z,16.74
2018-06-28T03:18:09.450Z,16.70
2018-06-28T03:20:56.347Z,16.69
2018-06-28T03:23:48.271Z,16.74
2018-06-28T03:26:36.667Z,16.76
2018-06-28T03:32:14.172Z,16.75
2018-06-28T03:35:01.558Z,16.69
2018-06-28T03:37:43.086Z,16.67
2018-06-28T03:40:36.104Z,16.68
2018-06-28T03:43:27.287Z,16.67
2018-06-28T03:46:11.170Z,16.75
2018-06-28T03:49:00.764Z,16.75
2018-06-28T03:51:50.260Z,16.77
2018-06-28T03:54:42.684Z,16.69
2018-06-28T03:57:28.276Z,16.68
2018-06-28T04:00:16.174Z,16.62
2018-06-28T04:03:09.315Z,16.65
2018-06-28T04:06:03.109Z,16.61
2018-06-28T04:08:56.935Z,16.72
2018-06-28T04:11:49.623Z,16.79
2018-06-28T04:20:28.765Z,16.75
2018-06-28T04:23:15.998Z,16.88
2018-06-28T04:31:51.416Z,16.85
2018-06-28T04:34:41.083Z,16.90
2018-06-28T04:37:31.301Z,17.03
2018-06-28T04:40:19.845Z,17.11
2018-06-28T04:43:09.649Z,17.22
2018-06-28T04:46:00.810Z,17.06
2018-06-28T04:48:49.234Z,17.11
2018-06-28T04:51:41.627Z,17.10
2018-06-28T04:54:38.306Z,17.20
2018-06-28T04:57:31.555Z,17.19
2018-06-28T05:00:24.598Z,17.20
2018-06-28T05:03:19.193Z,17.23
2018-06-28T05:09:04.550Z,17.30
2018-06-28T05:11:55.735Z,17.34
2018-06-28T05:14:46.985Z,17.40
2018-06-28T05:17:30.491Z,17.64
2018-06-28T05:20:10.143Z,17.65
2018-06-28T05:25:51.093Z,17.73
2018-06-28T05:28:43.304Z,17.68
2018-06-28T05:31:32.164Z,17.81
2018-06-28T05:42:48.208Z,18.33
2018-06-28T05:45:25.721Z,18.47
2018-06-28T05:48:09.440Z,18.38
2018-06-28T05:50:55.782Z,18.53
2018-06-28T05:53:35.570Z,18.63
2018-06-28T05:56:13.587Z,18.71
2018-06-28T05:58:59.580Z,18.80
2018-06-28T06:01:40.397Z,18.71
2018-06-28T06:04:30.287Z,18.90
2018-06-28T06:07:16.734Z,18.97
2018-06-28T06:09:53.481Z,18.91
2018-06-28T06:12:33.703Z,19.07
2018-06-28T06:15:17.320Z,19.13
2018-06-28T06:18:05.717Z,18.90
2018-06-28T06:20:48.962Z,19.19
2018-06-28T06:23:40.124Z,19.25
2018-06-28T06:26:27.131Z,19.52
2018-06-28T06:29:21.377Z,19.61
2018-06-28T06:32:13.779Z,19.73
2018-06-28T06:34:50.265Z,19.79
2018-06-28T06:37:23.595Z,20.07
2018-06-28T06:40:01.285Z,20.44
2018-06-28T06:42:36.703Z,22.93
2018-06-28T06:45:13.885Z,28.43
2018-06-28T06:47:57.797Z,32.88
2018-06-28T06:50:39.120Z,35.73
2018-06-28T06:53:26.587Z,35.93
2018-06-28T06:56:07.741Z,36.14
2018-06-28T06:58:47.048Z,36.29
2018-06-28T07:01:32.760Z,41.34
2018-06-28T07:04:11.484Z,42.50
2018-06-28T07:06:49.835Z,39.64
2018-06-28T07:09:36.413Z,40.80
2018-06-28T07:12:18.109Z,42.11
2018-06-28T07:14:56.515Z,42.30
2018-06-28T07:17:40.820Z,42.73
2018-06-28T07:20:29.320Z,41.92
2018-06-28T07:23:11.115Z,42.43
2018-06-28T07:25:52.283Z,44.73
2018-06-28T07:28:40.763Z,46.99
2018-06-28T07:31:28.194Z,41.47
2018-06-28T07:34:09.035Z,40.29
2018-06-28T07:36:48.580Z,43.65
2018-06-28T07:39:32.304Z,43.66
2018-06-28T07:42:12.938Z,45.88
2018-06-28T07:44:53.180Z,46.86
2018-06-28T07:47:39.264Z,46.77
2018-06-28T07:50:21.094Z,47.77
2018-06-28T07:53:02.891Z,43.08
2018-06-28T07:55:46.133Z,44.84
2018-06-28T07:58:29.737Z,46.05
2018-06-28T08:01:13.757Z,49.81
2018-06-28T08:03:52.155Z,49.56
2018-06-28T08:06:40.977Z,49.22
2018-06-28T08:09:29.614Z,46.97
2018-06-28T08:12:09.206Z,48.23
2018-06-28T08:14:54.316Z,52.32
2018-06-28T08:17:39.210Z,45.70
2018-06-28T08:20:28.630Z,46.54
2018-06-28T08:23:05.620Z,46.83
2018-06-28T08:25:46.658Z,49.05
2018-06-28T08:28:30.961Z,42.54
2018-06-28T08:31:15.112Z,43.67
2018-06-28T08:33:53.922Z,39.10
2018-06-28T08:36:31.727Z,35.65
2018-06-28T08:39:10.954Z,31.29
2018-06-28T08:41:53.195Z,30.04
2018-06-28T08:44:34.573Z,28.28
2018-06-28T08:47:19.383Z,28.14
2018-06-28T08:49:57.650Z,27.60
2018-06-28T08:52:46.602Z,27.17
2018-06-28T08:55:33.898Z,26.90
2018-06-28T08:58:15.271Z,26.72
2018-06-28T09:00:56.362Z,26.07
2018-06-28T09:06:33.347Z,25.70
2018-06-28T09:09:18.959Z,25.68
2018-06-28T09:12:04.593Z,25.76
2018-06-28T09:14:46.616Z,26.25
2018-06-28T09:17:32.854Z,25.69
2018-06-28T09:20:16.493Z,25.99
2018-06-28T09:23:03.603Z,25.76
2018-06-28T09:28:40.268Z,25.43
2018-06-28T09:31:28.310Z,25.32
2018-06-28T09:34:19.472Z,25.23
2018-06-28T09:36:57.491Z,25.21
2018-06-28T09:42:22.944Z,25.55
2018-06-28T09:45:06.829Z,25.59
2018-06-28T09:47:44.353Z,25.85
2018-06-28T09:50:29.869Z,25.05
2018-06-28T09:53:16.750Z,25.31
2018-06-28T09:55:57.404Z,25.11
2018-06-28T09:58:45.476Z,25.35
2018-06-28T10:01:19.081Z,25.73
2018-06-28T10:04:10.627Z,25.57
2018-06-28T10:06:54.697Z,25.53
2018-06-28T10:09:40.737Z,25.55
2018-06-28T10:12:23.925Z,25.77
2018-06-28T10:17:50.773Z,25.65
2018-06-28T10:20:33.584Z,25.94
2018-06-28T10:23:18.575Z,25.99
2018-06-28T10:26:05.108Z,26.18
2018-06-28T10:28:44.202Z,26.40
2018-06-28T10:34:22.826Z,26.85
2018-06-28T10:37:03.424Z,26.37
2018-06-28T10:39:50.140Z,26.20
2018-06-28T10:42:42.092Z,26.57
2018-06-28T10:45:26.210Z,26.68
2018-06-28T10:48:13.485Z,26.37
2018-06-28T10:51:00.854Z,26.28
2018-06-28T10:53:44.442Z,26.28
2018-06-28T10:56:27.384Z,26.28
2018-06-28T11:02:10.236Z,26.24
2018-06-28T11:04:56.279Z,26.43
2018-06-28T11:07:43.255Z,26.40
2018-06-28T11:10:27.201Z,26.19
2018-06-28T11:13:10.322Z,26.37
2018-06-28T11:15:50.991Z,26.18
2018-06-28T11:18:39.108Z,26.42
2018-06-28T11:21:25.548Z,26.46
2018-06-28T11:24:13.031Z,26.20
2018-06-28T11:26:46.051Z,26.21
2018-06-28T11:29:30.870Z,26.19
2018-06-28T11:32:10.634Z,26.09
2018-06-28T11:34:48.901Z,26.16
2018-06-28T11:37:32.702Z,26.45
2018-06-28T11:40:18.171Z,26.31
2018-06-28T11:42:59.599Z,26.03
2018-06-28T11:45:40.896Z,25.76
2018-06-28T11:51:17.035Z,25.94
2018-06-28T11:54:02.116Z,26.05
2018-06-28T11:56:47.109Z,26.02
2018-06-28T11:59:32.483Z,26.42
2018-06-28T12:02:15.092Z,26.48
2018-06-28T12:04:59.480Z,26.03
2018-06-28T12:07:45.734Z,25.76
2018-06-28T12:10:24.671Z,26.12
2018-06-28T12:13:13.442Z,26.37
2018-06-28T12:15:57.305Z,26.44
2018-06-28T12:18:40.051Z,26.27
2018-06-28T12:21:12.193Z,26.46
2018-06-28T12:23:59.177Z,26.49
2018-06-28T12:26:36.322Z,26.20
2018-06-28T12:29:31.119Z,26.15
2018-06-28T12:32:14.927Z,25.86
2018-06-28T12:34:51.628Z,26.04
2018-06-28T12:40:24.623Z,26.12
2018-06-28T12:43:03.273Z,26.26
2018-06-28T12:45:37.346Z,26.56
2018-06-28T12:48:21.110Z,26.61
2018-06-28T12:51:06.477Z,26.74
2018-06-28T12:53:46.993Z,26.51
2018-06-28T12:56:27.430Z,26.51
2018-06-28T12:59:17.276Z,26.30
2018-06-28T13:01:56.674Z,26.24
2018-06-28T13:07:35.110Z,26.46
2018-06-28T13:10:19.537Z,26.42
2018-06-28T13:13:03.831Z,26.62
2018-06-28T13:15:44.320Z,26.57
2018-06-28T13:18:32.730Z,26.47
2018-06-28T13:21:10.650Z,26.54
2018-06-28T13:23:59.439Z,26.62
2018-06-28T13:26:50.131Z,26.71
2018-06-28T13:29:27.447Z,26.64
2018-06-28T13:32:01.663Z,26.58
2018-06-28T13:34:41.495Z,26.57
2018-06-28T13:37:20.890Z,26.71
2018-06-28T13:39:52.149Z,26.45
2018-06-28T13:42:35.924Z,26.69
2018-06-28T13:45:19.901Z,26.70
2018-06-28T13:48:11.097Z,26.86
2018-06-28T13:51:00.099Z,26.87
2018-06-28T13:53:38.464Z,26.89
2018-06-28T13:56:13.567Z,26.87
2018-06-28T13:59:00.278Z,26.97
2018-06-28T14:01:49.908Z,26.84
2018-06-28T14:04:32.896Z,26.83
2018-06-28T14:07:11.747Z,26.93
2018-06-28T14:09:55.811Z,26.82
2018-06-28T14:12:39.980Z,26.69
2018-06-28T14:15:26.100Z,26.77
2018-06-28T14:17:56.044Z,26.81
2018-06-28T14:20:41.714Z,26.76
2018-06-28T14:23:18.788Z,26.76
2018-06-28T14:26:04.428Z,27.03
2018-06-28T14:28:48.685Z,26.82
2018-06-28T14:34:32.638Z,27.08
2018-06-28T14:37:10.931Z,26.82
2018-06-28T14:39:53.589Z,26.93
2018-06-28T14:42:41.097Z,27.00
2018-06-28T14:45:22.890Z,26.93
2018-06-28T14:48:04.317Z,26.96
2018-06-28T14:50:42.354Z,26.87
2018-06-28T14:53:31.841Z,26.84
2018-06-28T14:56:10.734Z,27.01
2018-06-28T14:58:52.918Z,26.95
2018-06-28T15:01:39.640Z,27.10
2018-06-28T15:04:27.743Z,27.20
2018-06-28T15:07:04.510Z,27.28
2018-06-28T15:09:47.707Z,26.83
2018-06-28T15:12:32.393Z,26.86
2018-06-28T15:15:14.792Z,26.97
2018-06-28T15:17:55.309Z,26.88
2018-06-28T15:23:31.117Z,27.23
2018-06-28T15:26:20.124Z,27.21
2018-06-28T15:29:04.030Z,26.99
2018-06-28T15:31:47.115Z,26.85
2018-06-28T15:34:32.769Z,26.89
2018-06-28T15:37:12.173Z,27.00
2018-06-28T15:39:53.638Z,27.06
2018-06-28T15:42:38.048Z,27.18
2018-06-28T15:45:19.599Z,27.16
2018-06-28T15:47:59.579Z,26.73
2018-06-28T15:50:34.518Z,26.76
2018-06-28T15:53:24.176Z,26.98
2018-06-28T15:56:11.784Z,26.99
2018-06-28T15:58:58.286Z,27.03
2018-06-28T16:01:44.090Z,27.07
2018-06-28T16:07:12.337Z,27.03
2018-06-28T16:09:58.607Z,27.22
2018-06-28T16:12:38.051Z,27.17
2018-06-28T16:15:24.763Z,26.98
2018-06-28T16:18:12.920Z,26.96
2018-06-28T16:20:54.827Z,26.89
2018-06-28T16:23:33.293Z,27.07
2018-06-28T16:26:18.103Z,26.93
2018-06-28T16:29:02.793Z,27.06
2018-06-28T16:31:48.879Z,26.96
2018-06-28T16:34:30.847Z,26.77
2018-06-28T16:39:55.457Z,26.95
2018-06-28T16:42:42.072Z,27.12
2018-06-28T16:45:20.672Z,27.01
2018-06-28T16:48:17.686Z,26.86
2018-06-28T16:51:01.131Z,26.87
2018-06-28T16:53:38.409Z,26.86
2018-06-28T16:56:20.250Z,26.75
2018-06-28T16:59:05.144Z,26.76
2018-06-28T17:01:50.168Z,26.77
2018-06-28T17:04:26.591Z,26.81
2018-06-28T17:07:05.324Z,26.62
2018-06-28T17:09:36.885Z,26.70
2018-06-28T17:12:06.649Z,26.63
2018-06-28T17:15:06.081Z,26.77
2018-06-28T17:17:42.152Z,26.61
2018-06-28T17:20:21.692Z,26.63
2018-06-28T17:23:03.106Z,26.69
2018-06-28T17:25:41.292Z,26.58
2018-06-28T17:28:17.748Z,26.62
2018-06-28T17:30:54.142Z,26.29
2018-06-28T17:33:27.924Z,26.29
2018-06-28T17:38:55.918Z,26.14
2018-06-28T17:41:36.776Z,26.22
2018-06-28T17:44:14.653Z,26.08
2018-06-28T17:46:49.390Z,25.88
2018-06-28T17:49:29.362Z,26.05
2018-06-28T17:52:15.403Z,26.06
2018-06-28T17:54:53.445Z,26.07
2018-06-28T17:57:26.852Z,26.00
2018-06-28T18:00:01.873Z,25.84
2018-06-28T18:02:38.766Z,25.80
2018-06-28T18:05:15.448Z,25.90
2018-06-28T18:07:49.930Z,25.88
2018-06-28T18:10:31.878Z,25.82
2018-06-28T18:13:07.042Z,25.42
2018-06-28T18:15:45.264Z,25.51
2018-06-28T18:18:31.366Z,25.40
2018-06-28T18:21:12.662Z,25.49
2018-06-28T18:23:48.039Z,25.49
2018-06-28T18:26:23.191Z,25.53
2018-06-28T18:28:57.766Z,25.46
2018-06-28T18:31:37.870Z,25.42
2018-06-28T18:34:14.228Z,25.37
2018-06-28T18:36:51.981Z,25.03
2018-06-28T18:39:26.214Z,24.89
2018-06-28T18:42:03.601Z,24.78
2018-06-28T18:44:42.294Z,24.82
2018-06-28T18:47:19.448Z,24.73
2018-06-28T18:49:56.164Z,24.64
2018-06-28T18:52:31.600Z,24.61
2018-06-28T18:55:07.689Z,24.71
2018-06-28T18:57:42.402Z,24.63
2018-06-28T19:00:16.449Z,24.52
2018-06-28T19:02:54.813Z,24.50
2018-06-28T19:05:28.643Z,24.46
2018-06-28T19:08:06.321Z,24.43
2018-06-28T19:10:45.180Z,24.39
2018-06-28T19:13:21.236Z,24.41
2018-06-28T19:16:01.465Z,24.33
2018-06-28T19:18:35.295Z,24.23
2018-06-28T19:21:15.665Z,24.08
2018-06-28T19:24:00.550Z,24.08
2018-06-28T19:26:37.326Z,24.01
2018-06-28T19:29:19.175Z,23.88
2018-06-28T19:32:00.359Z,23.84
2018-06-28T19:34:35.529Z,23.80
2018-06-28T19:37:14.065Z,23.73
2018-06-28T19:39:55.660Z,23.57
2018-06-28T19:42:41.705Z,23.58
2018-06-28T19:45:21.103Z,23.60
2018-06-28T19:47:55.269Z,23.58
2018-06-28T19:50:37.054Z,23.52
2018-06-28T19:53:18.409Z,23.45
2018-06-28T19:55:51.790Z,23.42
2018-06-28T19:58:33.195Z,23.37
2018-06-28T20:01:11.939Z,23.39
2018-06-28T20:03:50.400Z,23.41
2018-06-28T20:06:26.752Z,23.40
2018-06-28T20:09:12.395Z,23.35
2018-06-28T20:11:51.987Z,23.31
2018-06-28T20:15:31.153Z,23.26
2018-06-28T20:18:13.123Z,23.21
2018-06-28T20:20:51.676Z,23.31
2018-06-28T20:23:36.017Z,23.26
2018-06-28T20:26:22.491Z,23.17
2018-06-28T20:29:11.123Z,23.12
2018-06-28T20:31:53.476Z,23.14
2018-06-28T20:34:28.571Z,22.99
2018-06-28T20:37:05.511Z,23.03
2018-06-28T20:39:46.413Z,22.88
2018-06-28T20:42:19.843Z,22.86
2018-06-28T20:45:00.812Z,22.80
2018-06-28T20:47:40.095Z,22.72
2018-06-28T20:50:16.997Z,22.71
2018-06-28T20:52:56.545Z,22.66
2018-06-28T21:11:20.008Z,22.30
2018-06-28T21:14:03.306Z,22.27
2018-06-28T21:16:49.023Z,22.34
2018-06-28T21:19:29.288Z,22.37
2018-06-28T21:22:03.260Z,22.28
2018-06-28T21:24:41.695Z,22.19
2018-06-28T21:27:21.831Z,22.20
2018-06-28T21:30:02.666Z,22.14
2018-06-28T21:32:38.911Z,22.00
2018-06-28T21:35:13.869Z,22.01
2018-06-28T21:37:51.419Z,21.91
2018-06-28T21:40:33.722Z,21.83
2018-06-28T21:43:19.876Z,21.92
2018-06-28T21:46:06.683Z,21.83
2018-06-28T21:48:51.931Z,21.77
2018-06-28T21:51:40.706Z,21.88
2018-06-28T21:54:30.787Z,21.81
2018-06-28T21:57:18.731Z,21.75
2018-06-28T22:00:09.269Z,21.83
2018-06-28T22:02:56.402Z,21.81
2018-06-28T22:05:36.990Z,21.78
2018-06-28T22:08:27.618Z,21.72
2018-06-28T22:11:14.160Z,21.61
2018-06-28T22:13:57.446Z,21.67
2018-06-28T22:16:42.190Z,21.65
2018-06-28T22:19:31.406Z,21.51
2018-06-28T22:22:22.072Z,21.51
2018-06-28T22:25:10.702Z,21.39
2018-06-28T22:27:48.499Z,21.44
2018-06-28T22:30:36.553Z,21.31
2018-06-28T22:33:24.905Z,21.22
2018-06-28T22:36:18.430Z,21.37
2018-06-28T22:39:08.143Z,21.16
2018-06-28T22:41:52.107Z,21.17
2018-06-28T22:44:41.117Z,21.13
2018-06-28T22:47:32.811Z,21.01
2018-06-28T22:50:18.177Z,21.06
2018-06-28T22:53:13.981Z,20.95
2018-06-28T22:56:02.399Z,21.07
2018-06-28T22:58:54.169Z,20.96
2018-06-28T23:01:34.128Z,20.95
2018-06-28T23:04:10.796Z,20.91
2018-06-28T23:06:55.685Z,20.77
2018-06-28T23:09:44.220Z,20.79
2018-06-28T23:12:30.660Z,20.63
2018-06-28T23:15:18.226Z,20.65
2018-06-28T23:18:07.650Z,20.70
2018-06-28T23:20:56.145Z,20.69
2018-06-28T23:23:47.396Z,20.56
2018-06-28T23:26:32.398Z,20.63
2018-06-28T23:29:17.231Z,20.54
2018-06-28T23:32:11.065Z,20.57
2018-06-28T23:37:44.850Z,20.49
2018-06-28T23:40:33.878Z,20.34
2018-06-28T23:43:16.256Z,20.32
2018-06-28T23:46:08.056Z,20.39
2018-06-28T23:49:01.407Z,20.28
2018-06-28T23:51:48.090Z,20.43
2018-06-28T23:54:37.728Z,20.29
2018-06-28T23:57:24.943Z,20.27
